LGTSLATI

Guest
Details From LGTS - Thessalonik Makedonia
To LATI - Tirana Rinas
Flight Number -
Tags generated
Created
Modified
Stats Distance 157 nm / 291 km
Max Altitude 16,300 ft / 4,968 m
Waypoints 3
Social Downloads 0
Likes 0
Share VATSIM

Download

Looking for another format? Having issues loading an existing format? Contact us
Advertisement - Login to hide

Notes

Basic altitude profile: - Ascent Rate: 2500ft/min - Ascent Speed: 250kts - Cruise Altitude: 35000ft - Cruise Speed: 420kts - Descent Rate: 1500ft/min - Descent Speed: 250kts Options: - Use NATs: yes - Use PACOTS: yes - Use low airways: yes - Use high airways: yes

Route

LGTS BITLA LATI

ID Type Via Altitude Latitude Longitude Leg Dist Tot Dist Heading (true) Name
O LGTS APT - 0 ft / 0 m 40.51952˚ 22.97202˚ - 0 nm - Thessalonik Makedonia
BITLA FIX - 16,300 ft / 4,968 m 40.87556˚ 21.35806˚ 76 nm 76 nm 287° / 286° -
O LATI APT - 0 ft / 0 m 41.41473˚ 19.72057˚ 80 nm 157 nm 294° / 293° Tirana Rinas

Altitude Profile

Advertisement - Login to hide

LGTS

Details ICAO LGTS (SKG)
Name Thessalonik Makedonia
Region Greece
Timezone Europe/Athens (UTC+3.0)
Stats Elevation 22 ft / 7 m (AMSL)
Location 40.519522° 22.972017°
Runways 2
Magnetic Variation 4.666° E

METAR

LGTS 211720Z 26005KT 9999 FEW020 23/13 Q1015 NOSIG

Decode

TAF

TAF LGTS 211100Z 2112/2212 20010KT 9999 SCT025 PROB40 TEMPO 2112/2116 6000 SHRA FEW020CB BKN025 PROB30 TEMPO 2112/2114 4000 TSRA FEW008 FEW015CB BKN020 BECMG 2116/2118 VRB03KT FEW030

Decode

Departure Runways

ID Width Length Bearing (true) Bearing (mag) Surface Threshold Offset Overrun Length
10 164 ft / 50 m 7,990 ft / 2,435 m 103.95° 99.28° Asphalt 0 ft / 0 m 150 ft / 46 m
16 197 ft / 60 m 7,927 ft / 2,416 m 166.35° 161.68° Asphalt 0 ft / 0 m 200 ft / 61 m
28 164 ft / 50 m 7,990 ft / 2,435 m 283.97° 279.30° Asphalt 0 ft / 0 m 150 ft / 46 m
34 197 ft / 60 m 7,927 ft / 2,416 m 346.36° 341.69° Asphalt 0 ft / 0 m 200 ft / 61 m

LATI

Details ICAO LATI (TIA)
Name Tirana Rinas
Region Albania
Timezone Europe/Tirane (UTC+2.0)
Stats Elevation 126 ft / 38 m (AMSL)
Location 41.414732° 19.720569°
Runways 1
Magnetic Variation 4.277° E

METAR

LATI 211720Z 15006KT 9999 FEW040CB SCT059 BKN092 23/14 Q1012 NOSIG

Decode

TAF

TAF LATI 211100Z 2112/2212 VRB05KT 9999 SCT040 TX29/2112Z TN17/2203Z TEMPO 212/212 -TSRA SCT025CB BKN050 PROB40 TEMPO 2113/2119 VRB05G20KT 5000 TSRA

Decode

Destination Runways

ID Width Length Bearing (true) Bearing (mag) Surface Threshold Offset Overrun Length
18 148 ft / 45 m 8,984 ft / 2,738 m 174.31° 170.03° Asphalt 500 ft / 152 m 0 ft / 0 m
36 148 ft / 45 m 8,984 ft / 2,738 m 354.31° 350.03° Asphalt 500 ft / 152 m 0 ft / 0 m